sensor_id;sensor_type;location;lat;lon;timestamp;pressure;altitude;pressure_sealevel;temperature
42119;BMP280;27783;42.782;23.274;2022-10-18T00:00:30;97062.72;;;2.99
42119;BMP280;27783;42.782;23.274;2022-10-18T00:03:11;97058.19;;;2.91
42119;BMP280;27783;42.782;23.274;2022-10-18T00:05:36;97055.97;;;2.55
42119;BMP280;27783;42.782;23.274;2022-10-18T00:08:06;97055.44;;;2.11
42119;BMP280;27783;42.782;23.274;2022-10-18T00:10:33;97051.75;;;2.46
42119;BMP280;27783;42.782;23.274;2022-10-18T00:13:01;97044.09;;;2.63
42119;BMP280;27783;42.782;23.274;2022-10-18T00:15:26;97042.75;;;2.95
42119;BMP280;27783;42.782;23.274;2022-10-18T00:17:51;97037.00;;;3.06
42119;BMP280;27783;42.782;23.274;2022-10-18T00:20:17;97039.50;;;2.68
42119;BMP280;27783;42.782;23.274;2022-10-18T00:22:45;97035.34;;;2.24
42119;BMP280;27783;42.782;23.274;2022-10-18T00:25:13;97042.16;;;1.99
42119;BMP280;27783;42.782;23.274;2022-10-18T00:27:40;97034.44;;;2.07
42119;BMP280;27783;42.782;23.274;2022-10-18T00:30:05;97035.88;;;2.13
42119;BMP280;27783;42.782;23.274;2022-10-18T00:32:40;97033.34;;;2.08
42119;BMP280;27783;42.782;23.274;2022-10-18T00:35:06;97024.72;;;2.55
42119;BMP280;27783;42.782;23.274;2022-10-18T00:37:33;97021.47;;;2.71
42119;BMP280;27783;42.782;23.274;2022-10-18T00:39:58;97028.16;;;2.85
42119;BMP280;27783;42.782;23.274;2022-10-18T00:42:31;97009.44;;;2.83
42119;BMP280;27783;42.782;23.274;2022-10-18T00:47:31;97012.53;;;2.85
42119;BMP280;27783;42.782;23.274;2022-10-18T00:50:01;97016.78;;;2.60
42119;BMP280;27783;42.782;23.274;2022-10-18T00:52:36;97014.00;;;2.35
42119;BMP280;27783;42.782;23.274;2022-10-18T00:55:05;97007.81;;;2.23
42119;BMP280;27783;42.782;23.274;2022-10-18T00:57:33;97008.97;;;2.17
42119;BMP280;27783;42.782;23.274;2022-10-18T01:00:00;97010.00;;;2.30
42119;BMP280;27783;42.782;23.274;2022-10-18T01:02:27;97015.13;;;2.21
42119;BMP280;27783;42.782;23.274;2022-10-18T01:04:55;97004.53;;;2.18
42119;BMP280;27783;42.782;23.274;2022-10-18T01:21:41;96993.34;;;2.17
42119;BMP280;27783;42.782;23.274;2022-10-18T01:36:06;96985.44;;;1.40
42119;BMP280;27783;42.782;23.274;2022-10-18T01:38:50;96988.59;;;1.50
42119;BMP280;27783;42.782;23.274;2022-10-18T01:41:19;96982.84;;;1.27
42119;BMP280;27783;42.782;23.274;2022-10-18T01:43:49;96982.63;;;1.63
42119;BMP280;27783;42.782;23.274;2022-10-18T01:46:20;97000.81;;;1.11
42119;BMP280;27783;42.782;23.274;2022-10-18T01:48:50;96987.19;;;1.18
42119;BMP280;27783;42.782;23.274;2022-10-18T01:51:28;96987.53;;;1.25
42119;BMP280;27783;42.782;23.274;2022-10-18T01:53:55;96989.19;;;1.48
42119;BMP280;27783;42.782;23.274;2022-10-18T01:56:35;96990.72;;;1.49
42119;BMP280;27783;42.782;23.274;2022-10-18T01:59:27;96987.03;;;1.63
42119;BMP280;27783;42.782;23.274;2022-10-18T02:05:19;96975.66;;;1.72
42119;BMP280;27783;42.782;23.274;2022-10-18T02:10:45;96979.47;;;1.40
42119;BMP280;27783;42.782;23.274;2022-10-18T02:13:16;96972.22;;;1.63
42119;BMP280;27783;42.782;23.274;2022-10-18T02:15:46;96983.84;;;1.79
42119;BMP280;27783;42.782;23.274;2022-10-18T02:18:22;96973.63;;;1.82
42119;BMP280;27783;42.782;23.274;2022-10-18T02:20:50;96976.41;;;1.85
42119;BMP280;27783;42.782;23.274;2022-10-18T02:23:20;96967.47;;;1.78
42119;BMP280;27783;42.782;23.274;2022-10-18T02:25:47;96981.09;;;1.36
42119;BMP280;27783;42.782;23.274;2022-10-18T02:28:14;96978.69;;;1.00
42119;BMP280;27783;42.782;23.274;2022-10-18T02:30:46;96973.03;;;1.24
42119;BMP280;27783;42.782;23.274;2022-10-18T02:36:02;96976.28;;;1.16
42119;BMP280;27783;42.782;23.274;2022-10-18T02:38:31;96974.47;;;1.17
42119;BMP280;27783;42.782;23.274;2022-10-18T02:40:58;96972.66;;;1.31
42119;BMP280;27783;42.782;23.274;2022-10-18T02:43:25;96974.66;;;1.07
42119;BMP280;27783;42.782;23.274;2022-10-18T02:45:52;96969.06;;;0.87
42119;BMP280;27783;42.782;23.274;2022-10-18T02:48:17;96974.09;;;1.10
42119;BMP280;27783;42.782;23.274;2022-10-18T02:50:43;96968.63;;;1.12
42119;BMP280;27783;42.782;23.274;2022-10-18T02:53:11;96967.31;;;0.83
42119;BMP280;27783;42.782;23.274;2022-10-18T02:55:37;96971.69;;;0.56
42119;BMP280;27783;42.782;23.274;2022-10-18T02:58:03;96974.63;;;0.68
42119;BMP280;27783;42.782;23.274;2022-10-18T03:00:28;96971.22;;;0.99
42119;BMP280;27783;42.782;23.274;2022-10-18T03:02:53;96974.13;;;0.79
42119;BMP280;27783;42.782;23.274;2022-10-18T03:05:20;96979.69;;;0.73
42119;BMP280;27783;42.782;23.274;2022-10-18T03:07:57;96980.38;;;0.65
42119;BMP280;27783;42.782;23.274;2022-10-18T03:10:24;96976.50;;;1.07
42119;BMP280;27783;42.782;23.274;2022-10-18T03:12:51;96972.94;;;1.16
42119;BMP280;27783;42.782;23.274;2022-10-18T03:15:18;96983.22;;;1.08
42119;BMP280;27783;42.782;23.274;2022-10-18T03:17:46;96979.56;;;1.09
42119;BMP280;27783;42.782;23.274;2022-10-18T03:20:11;96980.53;;;1.26
42119;BMP280;27783;42.782;23.274;2022-10-18T03:22:41;96981.59;;;1.12
42119;BMP280;27783;42.782;23.274;2022-10-18T03:25:06;96983.88;;;1.00
42119;BMP280;27783;42.782;23.274;2022-10-18T03:27:32;96978.03;;;1.08
42119;BMP280;27783;42.782;23.274;2022-10-18T03:29:57;96978.50;;;0.97
42119;BMP280;27783;42.782;23.274;2022-10-18T03:32:26;96982.91;;;1.09
42119;BMP280;27783;42.782;23.274;2022-10-18T03:34:55;96972.53;;;1.22
42119;BMP280;27783;42.782;23.274;2022-10-18T03:37:23;96976.41;;;1.25
42119;BMP280;27783;42.782;23.274;2022-10-18T03:39:49;96972.16;;;1.16
42119;BMP280;27783;42.782;23.274;2022-10-18T03:42:19;96987.13;;;0.92
42119;BMP280;27783;42.782;23.274;2022-10-18T03:44:45;96987.13;;;0.92
42119;BMP280;27783;42.782;23.274;2022-10-18T03:47:13;96995.53;;;0.58
42119;BMP280;27783;42.782;23.274;2022-10-18T03:49:38;96993.38;;;0.47
42119;BMP280;27783;42.782;23.274;2022-10-18T03:52:04;96992.06;;;0.63
42119;BMP280;27783;42.782;23.274;2022-10-18T03:54:29;96986.91;;;0.76
42119;BMP280;27783;42.782;23.274;2022-10-18T03:56:55;96995.63;;;0.98
42119;BMP280;27783;42.782;23.274;2022-10-18T03:59:20;96993.41;;;1.17
42119;BMP280;27783;42.782;23.274;2022-10-18T04:01:47;96993.34;;;0.65
42119;BMP280;27783;42.782;23.274;2022-10-18T04:04:12;97008.25;;;0.42
42119;BMP280;27783;42.782;23.274;2022-10-18T04:06:38;96995.09;;;0.38
42119;BMP280;27783;42.782;23.274;2022-10-18T04:09:03;96999.91;;;0.45
42119;BMP280;27783;42.782;23.274;2022-10-18T04:11:29;97005.50;;;0.51
42119;BMP280;27783;42.782;23.274;2022-10-18T04:13:54;96992.16;;;0.58
42119;BMP280;27783;42.782;23.274;2022-10-18T04:16:21;96999.97;;;0.40
42119;BMP280;27783;42.782;23.274;2022-10-18T04:18:46;96988.03;;;0.57
42119;BMP280;27783;42.782;23.274;2022-10-18T04:21:12;96987.59;;;0.68
42119;BMP280;27783;42.782;23.274;2022-10-18T04:23:37;96989.59;;;0.71
42119;BMP280;27783;42.782;23.274;2022-10-18T04:26:02;96990.28;;;0.76
42119;BMP280;27783;42.782;23.274;2022-10-18T04:28:28;96987.25;;;0.56
42119;BMP280;27783;42.782;23.274;2022-10-18T04:30:54;96988.84;;;0.39
42119;BMP280;27783;42.782;23.274;2022-10-18T04:33:20;96988.28;;;0.42
42119;BMP280;27783;42.782;23.274;2022-10-18T04:35:46;96989.13;;;0.38
42119;BMP280;27783;42.782;23.274;2022-10-18T04:38:14;96990.31;;;0.45
42119;BMP280;27783;42.782;23.274;2022-10-18T04:40:40;96987.66;;;0.63
42119;BMP280;27783;42.782;23.274;2022-10-18T04:43:05;96974.06;;;0.53
42119;BMP280;27783;42.782;23.274;2022-10-18T04:45:30;96984.00;;;0.33
42119;BMP280;27783;42.782;23.274;2022-10-18T04:47:56;96985.59;;;0.16
42119;BMP280;27783;42.782;23.274;2022-10-18T04:50:21;96973.41;;;-0.01
42119;BMP280;27783;42.782;23.274;2022-10-18T04:52:48;96974.88;;;0.04
42119;BMP280;27783;42.782;23.274;2022-10-18T04:55:13;96977.69;;;-0.10
42119;BMP280;27783;42.782;23.274;2022-10-18T04:57:39;96967.88;;;0.05
42119;BMP280;27783;42.782;23.274;2022-10-18T05:00:05;96982.78;;;0.13
42119;BMP280;27783;42.782;23.274;2022-10-18T05:02:30;96976.94;;;0.20
42119;BMP280;27783;42.782;23.274;2022-10-18T05:04:57;96975.44;;;0.50
42119;BMP280;27783;42.782;23.274;2022-10-18T05:07:22;96983.06;;;0.29
42119;BMP280;27783;42.782;23.274;2022-10-18T05:09:47;96977.19;;;0.37
42119;BMP280;27783;42.782;23.274;2022-10-18T05:12:14;96981.13;;;0.52
42119;BMP280;27783;42.782;23.274;2022-10-18T05:14:39;96973.81;;;0.54
42119;BMP280;27783;42.782;23.274;2022-10-18T05:17:04;96975.06;;;0.57
42119;BMP280;27783;42.782;23.274;2022-10-18T05:19:30;96972.66;;;0.60
42119;BMP280;27783;42.782;23.274;2022-10-18T05:21:55;96978.22;;;0.54
42119;BMP280;27783;42.782;23.274;2022-10-18T05:24:20;96981.09;;;0.21
42119;BMP280;27783;42.782;23.274;2022-10-18T05:26:46;96986.69;;;0.28
42119;BMP280;27783;42.782;23.274;2022-10-18T05:29:11;96980.31;;;0.39
42119;BMP280;27783;42.782;23.274;2022-10-18T05:31:37;96976.34;;;0.59
42119;BMP280;27783;42.782;23.274;2022-10-18T05:34:02;96982.91;;;0.96
42119;BMP280;27783;42.782;23.274;2022-10-18T05:36:29;96985.91;;;1.16
42119;BMP280;27783;42.782;23.274;2022-10-18T05:38:54;96979.75;;;1.38
42119;BMP280;27783;42.782;23.274;2022-10-18T05:41:22;96977.44;;;1.50
42119;BMP280;27783;42.782;23.274;2022-10-18T05:43:48;96980.59;;;1.60
42119;BMP280;27783;42.782;23.274;2022-10-18T05:46:14;96971.19;;;1.64
42119;BMP280;27783;42.782;23.274;2022-10-18T05:48:42;96978.94;;;1.77
42119;BMP280;27783;42.782;23.274;2022-10-18T05:51:08;96978.84;;;1.69
42119;BMP280;27783;42.782;23.274;2022-10-18T05:53:34;96972.66;;;1.78
42119;BMP280;27783;42.782;23.274;2022-10-18T05:56:01;96972.63;;;1.91
42119;BMP280;27783;42.782;23.274;2022-10-18T05:58:26;96981.56;;;1.99
42119;BMP280;27783;42.782;23.274;2022-10-18T06:00:52;96987.22;;;2.14
42119;BMP280;27783;42.782;23.274;2022-10-18T06:03:18;96985.31;;;2.27
42119;BMP280;27783;42.782;23.274;2022-10-18T06:05:45;96990.25;;;2.50
42119;BMP280;27783;42.782;23.274;2022-10-18T06:08:11;96988.75;;;2.57
42119;BMP280;27783;42.782;23.274;2022-10-18T06:10:38;96974.16;;;2.69
42119;BMP280;27783;42.782;23.274;2022-10-18T06:13:04;96975.00;;;2.86
42119;BMP280;27783;42.782;23.274;2022-10-18T06:15:30;96976.16;;;3.02
42119;BMP280;27783;42.782;23.274;2022-10-18T06:17:57;96979.81;;;3.01
42119;BMP280;27783;42.782;23.274;2022-10-18T06:20:23;96982.13;;;3.32
42119;BMP280;27783;42.782;23.274;2022-10-18T06:22:51;96985.38;;;3.46
42119;BMP280;27783;42.782;23.274;2022-10-18T06:25:17;96984.66;;;3.70
42119;BMP280;27783;42.782;23.274;2022-10-18T06:27:43;96985.34;;;4.00
42119;BMP280;27783;42.782;23.274;2022-10-18T06:30:09;96985.50;;;4.12
42119;BMP280;27783;42.782;23.274;2022-10-18T06:32:35;96987.06;;;4.37
42119;BMP280;27783;42.782;23.274;2022-10-18T06:35:01;96983.19;;;4.60
42119;BMP280;27783;42.782;23.274;2022-10-18T06:37:30;96983.28;;;4.96
42119;BMP280;27783;42.782;23.274;2022-10-18T06:39:55;96992.66;;;5.33
42119;BMP280;27783;42.782;23.274;2022-10-18T06:42:20;96988.69;;;5.36
42119;BMP280;27783;42.782;23.274;2022-10-18T06:44:47;96985.63;;;5.62
42119;BMP280;27783;42.782;23.274;2022-10-18T06:47:12;96987.19;;;5.91
42119;BMP280;27783;42.782;23.274;2022-10-18T06:49:37;96991.66;;;5.91
42119;BMP280;27783;42.782;23.274;2022-10-18T06:52:03;96989.81;;;6.51
42119;BMP280;27783;42.782;23.274;2022-10-18T06:54:32;96979.59;;;6.89
42119;BMP280;27783;42.782;23.274;2022-10-18T06:56:58;96983.94;;;6.85
42119;BMP280;27783;42.782;23.274;2022-10-18T06:59:27;96986.59;;;7.40
42119;BMP280;27783;42.782;23.274;2022-10-18T07:01:54;96985.38;;;7.38
42119;BMP280;27783;42.782;23.274;2022-10-18T07:04:19;96987.44;;;7.44
42119;BMP280;27783;42.782;23.274;2022-10-18T07:06:45;96984.91;;;7.24
42119;BMP280;27783;42.782;23.274;2022-10-18T07:09:14;96982.78;;;7.73
42119;BMP280;27783;42.782;23.274;2022-10-18T07:11:40;96979.25;;;8.16
42119;BMP280;27783;42.782;23.274;2022-10-18T07:14:07;96984.78;;;8.37
42119;BMP280;27783;42.782;23.274;2022-10-18T07:16:32;96974.88;;;8.58
42119;BMP280;27783;42.782;23.274;2022-10-18T07:19:00;96983.53;;;8.58
42119;BMP280;27783;42.782;23.274;2022-10-18T07:21:26;96977.03;;;8.67
42119;BMP280;27783;42.782;23.274;2022-10-18T07:23:51;96965.59;;;9.02
42119;BMP280;27783;42.782;23.274;2022-10-18T07:26:31;96954.13;;;9.10
42119;BMP280;27783;42.782;23.274;2022-10-18T07:29:08;96963.28;;;8.47
42119;BMP280;27783;42.782;23.274;2022-10-18T07:31:34;96952.72;;;9.27
42119;BMP280;27783;42.782;23.274;2022-10-18T07:34:03;96946.47;;;9.95
42119;BMP280;27783;42.782;23.274;2022-10-18T07:36:29;96954.38;;;9.35
42119;BMP280;27783;42.782;23.274;2022-10-18T07:38:54;96949.38;;;9.00
42119;BMP280;27783;42.782;23.274;2022-10-18T07:41:21;96946.59;;;9.53
42119;BMP280;27783;42.782;23.274;2022-10-18T07:43:49;96942.03;;;9.81
42119;BMP280;27783;42.782;23.274;2022-10-18T07:46:19;96934.81;;;11.07
42119;BMP280;27783;42.782;23.274;2022-10-18T07:48:45;96933.66;;;11.45
42119;BMP280;27783;42.782;23.274;2022-10-18T07:51:11;96934.13;;;10.32
42119;BMP280;27783;42.782;23.274;2022-10-18T07:53:37;96935.31;;;10.53
42119;BMP280;27783;42.782;23.274;2022-10-18T07:56:04;96929.13;;;10.65
42119;BMP280;27783;42.782;23.274;2022-10-18T07:58:31;96931.00;;;11.45
42119;BMP280;27783;42.782;23.274;2022-10-18T08:01:00;96930.25;;;11.44
42119;BMP280;27783;42.782;23.274;2022-10-18T08:03:26;96920.69;;;11.83
42119;BMP280;27783;42.782;23.274;2022-10-18T08:05:52;96907.06;;;12.07
42119;BMP280;27783;42.782;23.274;2022-10-18T08:08:19;96913.72;;;11.98
42119;BMP280;27783;42.782;23.274;2022-10-18T08:10:45;96907.00;;;12.32
42119;BMP280;27783;42.782;23.274;2022-10-18T08:13:10;96910.97;;;12.48
42119;BMP280;27783;42.782;23.274;2022-10-18T08:15:36;96894.69;;;13.52
42119;BMP280;27783;42.782;23.274;2022-10-18T08:18:01;96889.66;;;12.99
42119;BMP280;27783;42.782;23.274;2022-10-18T08:20:26;96887.03;;;13.41
42119;BMP280;27783;42.782;23.274;2022-10-18T08:22:52;96885.34;;;13.68
42119;BMP280;27783;42.782;23.274;2022-10-18T08:25:18;96889.66;;;13.37
42119;BMP280;27783;42.782;23.274;2022-10-18T08:27:43;96871.34;;;14.27
42119;BMP280;27783;42.782;23.274;2022-10-18T08:30:09;96872.56;;;14.47
42119;BMP280;27783;42.782;23.274;2022-10-18T08:32:34;96874.34;;;14.16
42119;BMP280;27783;42.782;23.274;2022-10-18T08:35:00;96860.63;;;15.10
42119;BMP280;27783;42.782;23.274;2022-10-18T08:37:26;96853.41;;;15.04
42119;BMP280;27783;42.782;23.274;2022-10-18T08:39:51;96850.41;;;15.63
42119;BMP280;27783;42.782;23.274;2022-10-18T08:42:45;96839.75;;;15.16
42119;BMP280;27783;42.782;23.274;2022-10-18T08:45:14;96839.75;;;15.12
42119;BMP280;27783;42.782;23.274;2022-10-18T08:47:45;96832.16;;;15.65
42119;BMP280;27783;42.782;23.274;2022-10-18T08:50:20;96838.59;;;15.78
42119;BMP280;27783;42.782;23.274;2022-10-18T08:52:57;96833.56;;;16.17
42119;BMP280;27783;42.782;23.274;2022-10-18T08:55:28;96828.72;;;15.92
42119;BMP280;27783;42.782;23.274;2022-10-18T08:57:58;96825.13;;;16.46
42119;BMP280;27783;42.782;23.274;2022-10-18T09:00:26;96816.94;;;16.80
42119;BMP280;27783;42.782;23.274;2022-10-18T09:05:54;96810.56;;;18.05
42119;BMP280;27783;42.782;23.274;2022-10-18T09:10:55;96802.47;;;17.76
42119;BMP280;27783;42.782;23.274;2022-10-18T09:19:25;96782.97;;;18.18
42119;BMP280;27783;42.782;23.274;2022-10-18T09:21:56;96801.59;;;17.50
42119;BMP280;27783;42.782;23.274;2022-10-18T09:26:57;96782.94;;;19.54
42119;BMP280;27783;42.782;23.274;2022-10-18T09:35:32;96773.50;;;18.98
42119;BMP280;27783;42.782;23.274;2022-10-18T09:37:36;96769.41;;;18.90
42119;BMP280;27783;42.782;23.274;2022-10-18T09:40:14;96761.03;;;19.36
42119;BMP280;27783;42.782;23.274;2022-10-18T09:42:49;96763.72;;;20.00
42119;BMP280;27783;42.782;23.274;2022-10-18T09:45:26;96757.59;;;20.19
42119;BMP280;27783;42.782;23.274;2022-10-18T09:50:53;96742.44;;;21.00
42119;BMP280;27783;42.782;23.274;2022-10-18T09:56:22;96752.44;;;19.89
42119;BMP280;27783;42.782;23.274;2022-10-18T09:58:49;96744.91;;;20.76
42119;BMP280;27783;42.782;23.274;2022-10-18T10:01:26;96744.47;;;20.05
42119;BMP280;27783;42.782;23.274;2022-10-18T10:03:52;96748.22;;;20.11
42119;BMP280;27783;42.782;23.274;2022-10-18T10:06:25;96727.59;;;20.46
42119;BMP280;27783;42.782;23.274;2022-10-18T10:09:00;96719.56;;;20.27
42119;BMP280;27783;42.782;23.274;2022-10-18T10:11:35;96718.75;;;20.11
42119;BMP280;27783;42.782;23.274;2022-10-18T10:16:57;96696.59;;;20.29
42119;BMP280;27783;42.782;23.274;2022-10-18T10:19:27;96686.53;;;21.14
42119;BMP280;27783;42.782;23.274;2022-10-18T10:22:00;96686.94;;;20.66
42119;BMP280;27783;42.782;23.274;2022-10-18T10:27:03;96675.72;;;21.02
42119;BMP280;27783;42.782;23.274;2022-10-18T10:32:11;96668.84;;;21.60
42119;BMP280;27783;42.782;23.274;2022-10-18T10:34:37;96663.00;;;21.21
42119;BMP280;27783;42.782;23.274;2022-10-18T10:37:30;96657.56;;;21.53
42119;BMP280;27783;42.782;23.274;2022-10-18T10:42:36;96642.16;;;21.41
42119;BMP280;27783;42.782;23.274;2022-10-18T10:45:03;96640.25;;;21.69
42119;BMP280;27783;42.782;23.274;2022-10-18T10:47:35;96631.41;;;21.96
42119;BMP280;27783;42.782;23.274;2022-10-18T10:50:09;96628.38;;;21.54
42119;BMP280;27783;42.782;23.274;2022-10-18T10:52:36;96620.56;;;21.32
42119;BMP280;27783;42.782;23.274;2022-10-18T10:55:02;96619.81;;;21.32
42119;BMP280;27783;42.782;23.274;2022-10-18T10:57:28;96615.88;;;21.76
42119;BMP280;27783;42.782;23.274;2022-10-18T10:59:56;96615.75;;;22.19
42119;BMP280;27783;42.782;23.274;2022-10-18T11:02:32;96610.91;;;22.02
42119;BMP280;27783;42.782;23.274;2022-10-18T11:07:50;96598.97;;;22.03
42119;BMP280;27783;42.782;23.274;2022-10-18T11:10:20;96591.75;;;22.85
42119;BMP280;27783;42.782;23.274;2022-10-18T11:12:49;96586.09;;;22.10
42119;BMP280;27783;42.782;23.274;2022-10-18T11:15:26;96582.22;;;23.05
42119;BMP280;27783;42.782;23.274;2022-10-18T11:20:47;96583.19;;;22.78
42119;BMP280;27783;42.782;23.274;2022-10-18T11:23:14;96575.47;;;22.55
42119;BMP280;27783;42.782;23.274;2022-10-18T11:28:37;96556.41;;;23.40
42119;BMP280;27783;42.782;23.274;2022-10-18T11:31:26;96556.31;;;22.29
42119;BMP280;27783;42.782;23.274;2022-10-18T11:34:16;96547.00;;;23.12
42119;BMP280;27783;42.782;23.274;2022-10-18T11:43:17;96530.22;;;22.54
42119;BMP280;27783;42.782;23.274;2022-10-18T11:48:57;96514.44;;;23.52
42119;BMP280;27783;42.782;23.274;2022-10-18T11:51:36;96516.66;;;23.95
42119;BMP280;27783;42.782;23.274;2022-10-18T11:54:51;96513.59;;;23.34
42119;BMP280;27783;42.782;23.274;2022-10-18T12:05:12;96493.16;;;22.13
42119;BMP280;27783;42.782;23.274;2022-10-18T12:07:50;96484.06;;;22.55
42119;BMP280;27783;42.782;23.274;2022-10-18T12:10:19;96477.69;;;22.17
42119;BMP280;27783;42.782;23.274;2022-10-18T12:12:56;96476.34;;;22.33
42119;BMP280;27783;42.782;23.274;2022-10-18T12:15:26;96469.91;;;22.76
42119;BMP280;27783;42.782;23.274;2022-10-18T12:17:54;96460.31;;;23.29
42119;BMP280;27783;42.782;23.274;2022-10-18T12:20:29;96461.56;;;22.17
42119;BMP280;27783;42.782;23.274;2022-10-18T12:22:58;96459.63;;;22.74
42119;BMP280;27783;42.782;23.274;2022-10-18T12:25:26;96450.50;;;23.64
42119;BMP280;27783;42.782;23.274;2022-10-18T12:28:07;96448.78;;;23.79
42119;BMP280;27783;42.782;23.274;2022-10-18T12:31:10;96437.78;;;23.94
42119;BMP280;27783;42.782;23.274;2022-10-18T12:33:41;96433.06;;;24.24
42119;BMP280;27783;42.782;23.274;2022-10-18T12:38:54;96433.41;;;23.58
42119;BMP280;27783;42.782;23.274;2022-10-18T12:41:28;96423.56;;;23.64
42119;BMP280;27783;42.782;23.274;2022-10-18T12:44:20;96417.03;;;23.74
42119;BMP280;27783;42.782;23.274;2022-10-18T12:46:55;96417.31;;;24.14
42119;BMP280;27783;42.782;23.274;2022-10-18T12:49:33;96414.94;;;23.78
42119;BMP280;27783;42.782;23.274;2022-10-18T12:52:01;96409.22;;;23.67
42119;BMP280;27783;42.782;23.274;2022-10-18T12:54:31;96398.88;;;23.95
42119;BMP280;27783;42.782;23.274;2022-10-18T12:56:59;96400.16;;;24.90
42119;BMP280;27783;42.782;23.274;2022-10-18T13:09:36;96389.03;;;24.10
42119;BMP280;27783;42.782;23.274;2022-10-18T13:17:29;96377.97;;;24.34
42119;BMP280;27783;42.782;23.274;2022-10-18T13:20:10;96372.56;;;23.61
42119;BMP280;27783;42.782;23.274;2022-10-18T13:25:31;96367.91;;;23.61
42119;BMP280;27783;42.782;23.274;2022-10-18T13:33:23;96351.22;;;24.66
42119;BMP280;27783;42.782;23.274;2022-10-18T13:35:57;96352.81;;;24.02
42119;BMP280;27783;42.782;23.274;2022-10-18T13:41:10;96347.88;;;23.54
42119;BMP280;27783;42.782;23.274;2022-10-18T13:54:37;96334.25;;;22.68
42119;BMP280;27783;42.782;23.274;2022-10-18T14:08:03;96320.06;;;22.68
42119;BMP280;27783;42.782;23.274;2022-10-18T14:13:19;96320.38;;;22.16
42119;BMP280;27783;42.782;23.274;2022-10-18T14:15:48;96319.94;;;22.17
42119;BMP280;27783;42.782;23.274;2022-10-18T14:18:20;96323.41;;;22.38
42119;BMP280;27783;42.782;23.274;2022-10-18T14:20:54;96325.09;;;22.45
42119;BMP280;27783;42.782;23.274;2022-10-18T14:23:27;96318.03;;;22.38
42119;BMP280;27783;42.782;23.274;2022-10-18T14:26:28;96315.22;;;22.21
42119;BMP280;27783;42.782;23.274;2022-10-18T14:29:05;96309.63;;;22.16
42119;BMP280;27783;42.782;23.274;2022-10-18T14:31:31;96312.72;;;21.93
42119;BMP280;27783;42.782;23.274;2022-10-18T14:33:57;96314.59;;;21.84
42119;BMP280;27783;42.782;23.274;2022-10-18T14:36:26;96310.28;;;21.74
42119;BMP280;27783;42.782;23.274;2022-10-18T14:38:58;96313.75;;;21.51
42119;BMP280;27783;42.782;23.274;2022-10-18T14:41:32;96312.69;;;21.48
42119;BMP280;27783;42.782;23.274;2022-10-18T14:46:41;96299.31;;;21.12
42119;BMP280;27783;42.782;23.274;2022-10-18T14:49:10;96299.31;;;21.12
42119;BMP280;27783;42.782;23.274;2022-10-18T14:51:38;96294.28;;;21.26
42119;BMP280;27783;42.782;23.274;2022-10-18T14:54:05;96292.19;;;20.81
42119;BMP280;27783;42.782;23.274;2022-10-18T14:56:36;96300.59;;;21.07
42119;BMP280;27783;42.782;23.274;2022-10-18T14:59:04;96294.28;;;20.50
42119;BMP280;27783;42.782;23.274;2022-10-18T15:01:35;96290.84;;;20.21
42119;BMP280;27783;42.782;23.274;2022-10-18T15:04:07;96291.16;;;19.68
42119;BMP280;27783;42.782;23.274;2022-10-18T15:06:34;96291.59;;;19.36
42119;BMP280;27783;42.782;23.274;2022-10-18T15:09:01;96291.31;;;19.30
42119;BMP280;27783;42.782;23.274;2022-10-18T15:11:29;96296.34;;;19.13
42119;BMP280;27783;42.782;23.274;2022-10-18T15:13:57;96284.59;;;18.91
42119;BMP280;27783;42.782;23.274;2022-10-18T15:16:27;96280.25;;;18.82
42119;BMP280;27783;42.782;23.274;2022-10-18T15:22:02;96279.41;;;18.31
42119;BMP280;27783;42.782;23.274;2022-10-18T15:26:58;96273.06;;;18.06
42119;BMP280;27783;42.782;23.274;2022-10-18T15:29:24;96271.06;;;17.69
42119;BMP280;27783;42.782;23.274;2022-10-18T15:31:50;96268.66;;;17.55
42119;BMP280;27783;42.782;23.274;2022-10-18T15:34:25;96273.50;;;17.41
42119;BMP280;27783;42.782;23.274;2022-10-18T15:36:52;96274.63;;;17.18
42119;BMP280;27783;42.782;23.274;2022-10-18T15:42:00;96276.31;;;16.80
42119;BMP280;27783;42.782;23.274;2022-10-18T15:44:45;96282.34;;;16.58
42119;BMP280;27783;42.782;23.274;2022-10-18T15:49:48;96278.41;;;16.40
42119;BMP280;27783;42.782;23.274;2022-10-18T15:52:35;96281.84;;;16.08
42119;BMP280;27783;42.782;23.274;2022-10-18T15:58:20;96284.44;;;15.79
42119;BMP280;27783;42.782;23.274;2022-10-18T16:00:48;96284.72;;;15.51
42119;BMP280;27783;42.782;23.274;2022-10-18T16:03:16;96288.59;;;15.44
42119;BMP280;27783;42.782;23.274;2022-10-18T16:05:43;96287.56;;;15.31
42119;BMP280;27783;42.782;23.274;2022-10-18T16:08:26;96286.31;;;15.42
42119;BMP280;27783;42.782;23.274;2022-10-18T16:10:58;96293.97;;;15.37
42119;BMP280;27783;42.782;23.274;2022-10-18T16:13:24;96291.09;;;15.18
42119;BMP280;27783;42.782;23.274;2022-10-18T16:15:50;96284.31;;;15.14
42119;BMP280;27783;42.782;23.274;2022-10-18T16:18:22;96287.47;;;14.95
42119;BMP280;27783;42.782;23.274;2022-10-18T16:20:49;96292.13;;;14.78
42119;BMP280;27783;42.782;23.274;2022-10-18T16:23:21;96288.75;;;14.74
42119;BMP280;27783;42.782;23.274;2022-10-18T16:25:50;96293.34;;;14.63
42119;BMP280;27783;42.782;23.274;2022-10-18T16:28:22;96288.47;;;14.55
42119;BMP280;27783;42.782;23.274;2022-10-18T16:30:57;96294.63;;;14.42
42119;BMP280;27783;42.782;23.274;2022-10-18T16:33:23;96295.38;;;14.35
42119;BMP280;27783;42.782;23.274;2022-10-18T16:35:49;96299.25;;;14.24
42119;BMP280;27783;42.782;23.274;2022-10-18T16:38:23;96303.34;;;14.32
42119;BMP280;27783;42.782;23.274;2022-10-18T16:40:49;96300.00;;;14.21
42119;BMP280;27783;42.782;23.274;2022-10-18T16:43:14;96304.97;;;14.13
42119;BMP280;27783;42.782;23.274;2022-10-18T16:45:39;96299.31;;;14.04
42119;BMP280;27783;42.782;23.274;2022-10-18T16:48:05;96315.28;;;13.83
42119;BMP280;27783;42.782;23.274;2022-10-18T16:50:31;96304.66;;;13.77
42119;BMP280;27783;42.782;23.274;2022-10-18T16:52:56;96311.84;;;13.90
42119;BMP280;27783;42.782;23.274;2022-10-18T16:55:22;96317.16;;;13.76
42119;BMP280;27783;42.782;23.274;2022-10-18T16:57:50;96316.44;;;13.59
42119;BMP280;27783;42.782;23.274;2022-10-18T17:00:19;96318.34;;;13.58
42119;BMP280;27783;42.782;23.274;2022-10-18T17:02:46;96312.31;;;13.27